Beaver Island, Canada
Current Conditions -  °F | °C
As of 1:00 AM on Saturday 01 Nov 2014 (Local Time) from CYHZ Reporting Station
Overcast Overcast  
Wind Chill: 37°   Ceiling: 6000
Heat Index: 41°   Visibility: 15mi
Dew Point: 34°   Wind: 6mph
Humidity: 76%   Direction: 50°NE
Pressure: 30.07"   Gusts: NA
Location:  44.75°N, 62.8°W
Report Text: CYHZ 010400Z 05005KT 15SM FEW050 OVC060 05/01 A3007 RMK SC2SC6 SLP188
Loading
Personal Weather Stations






























Interactive Weather Map
Tropical Storm Tracking
New forecast layout! Learn more

10-Day Weather Forecast

Advertisements
Track Severe Weather on mobile